Terminal Aerodrome Forecast
Issued by NWS

Home | Current Version | Previous Version | Text Only | Print | Product List | Glossary Off
Versions: 1 2 3 4 5 6 7 8 9 10 11 12 13 14 15 16 17 18 19 20 21 22 23 24 25 26 27 28 29 30 31 32
000 FTUS41 KBOX 252011 AAA TAFBAF TAF AMD KBAF 252011Z 2520/2618 32011KT P6SM FEW060 FM260000 32004KT P6SM SKC FM261500 10004KT P6SM FEW250 FM261700 17005KT P6SM SCT250=

USA.gov is the U.S. government's official web portal to all federal, state and local government web resources and services.